Will Rogers World Airport
KOKC : now visible

Airfield :











YOU CAN JOIN US ON...

 
LOGIN :

Register | Disclaimer

   EN    FR    IT 

 









Legend :    VFR   Marginal VFR   IFR   Intensive IFR   Very Intensive IFR
Visi :
Ceiling :
>= 8 km
>= 3000ft
5 to 8 km
1000 to 3000 ft
1500m to 5 km
500 to 1000 ft
800 to 1500m
200 to 500 ft
< 800m
< 200 ft
Symbols :   Thunderstorms  Fog  Heavy snow  Heavy precipitations  Wind > 20 kt






- Airport Elevation : 1295 ft
- IATA code : OKC


KOKC - Will Rogers World

CURRENT METAR :
  • 220252Z 04007KT 10SM FEW095 BKN250 10/M04 A3018 RMK AO2 SLP223 T01001044 53004

EXPIRED METARs :
  • 220152Z 03007KT 10SM FEW100 BKN250 11/M05 A3016 RMK AO2 SLP215 T01111050
  • 220052Z 02008KT 10SM FEW100 BKN250 12/M06 A3016 RMK AO2 SLP216 T01221056

TAF KOKC
Valid from the 22 at 00:00 until the 23 at 00:00 UTC


212344Z 2200/2224 03005KT P6SM SCT250
FM220300 09007KT P6SM SCT150 BKN250
FM221000 13009KT P6SM BKN080 BKN150
FM221800 15013KT P6SM SCT040 OVC080
FM222200 17011KT P6SM BKN040 OVC080
KZFW FIR / North America



MET'MAP, your aeronautical weather chart ! - Copyright ORBIFLY December 2007 - Disclaimer

ORBIFLY MET'MAP TEAM :

Programming & Development : Alexandra Zaïnal
Concept & original design : Baudouin d'Aumeries
Assistance for programming : Marc-Olivier Méhu
Technical & hardware support : Manuel Goepfert

Contact : metmap@orbifly.com




SOURCES & CREDITS :

   NOAA       Earth
Advisory